Aviation Digital Data Service (ADDS)

Output produced by METARs form (0053 UTC 22 September 2017)
found at http://www.aviationweather.gov/adds/metars/
 
MUSC 212300Z 2200/2224 04008KT 9000 SCT020 
     BECMG 2202/2204 VRB03KT 
     BECMG 2216/2218 03010KT 
     TEMPO 2219/2224 4000 TSRA SCT015CB BKN020
       
MUCU 212300Z 2200/2224 36010KT 9000 SCT020 
     TEMPO 2200/2206 3000 TSRA SCT015CB BKN020 
     TEMPO 2218/2224 4000 TSRA SCT015CB BKN020
       
MUHG 212300Z 2200/2224 04010KT 9000 SCT020 
     TEMPO 2200/2206 3000 TSRA SCT015CB BKN020 
     TEMPO 2218/2224 4000 TSRA SCT015CB BKN020
       
TAF MUGM 2123/2223 02009KT 9999 SCT025 BKN050 BKN130 QNH2973INS 
     BECMG 2200/2202 01008KT 9999 VCSH SCT025 BKN050 BKN280 QNH2974INS 
     BECMG 2216/2218 09012KT 9999 VCSH SCT025CB BKN050 BKN280 QNH2976INS 
     FM222200 34006KT 9999 VCSH SCT025CB BKN050 BKN280 QNH2972INS T26/2211Z T34/2217Z FN20024
       
MUCM 212300Z 2200/2224 04010KT 9000 SCT020 
     TEMPO 2200/2206 3000 TSRA SCT015CB BKN020 
     TEMPO 2218/2224 4000 TSRA SCT015CB BKN020
       
MUCC 212300Z 2200/2224 03010KT 9000 SCT020 
     TEMPO 2200/2203 4000 TSRA SCT015CB BKN020 
     BECMG 2204/2205 VRB03KT 
     BECMG 2216/2218 03010KT 
     TEMPO 2220/2224 4000 TSRA SCT015CB BKN020
       
MUHA 212300Z 2200/2224 05007KT 9000 SCT030 
     BECMG 2204/2206 VRB04KT 
     TEMPO 2219/2224 03011KT 3000 TSRA FEW018 BKN020
       
MUVR 212300Z 2200/2224 04010KT 9000 FEW020 
     BECMG 2204/2205 VRB03KT 
     BECMG 2216/2218 03010KT 
     PROB30 
     TEMPO 2219/2224 4000 TSRA SCT015CB BKN020